sensor_id;sensor_type;location;lat;lon;timestamp;P1;P2;P0
72023;PMS5003;59889;50.700;5.440;2022-09-28T00:00:33;3;3;
72023;PMS5003;59889;50.700;5.440;2022-09-28T00:02:58;5;4;
72023;PMS5003;59889;50.700;5.440;2022-09-28T00:05:23;4;4;
72023;PMS5003;59889;50.700;5.440;2022-09-28T00:07:48;5;5;
72023;PMS5003;59889;50.700;5.440;2022-09-28T00:10:13;5;4;
72023;PMS5003;59889;50.700;5.440;2022-09-28T00:12:38;4;4;
72023;PMS5003;59889;50.700;5.440;2022-09-28T00:15:04;4;3;
72023;PMS5003;59889;50.700;5.440;2022-09-28T00:17:28;6;5;
72023;PMS5003;59889;50.700;5.440;2022-09-28T00:19:54;4;4;
72023;PMS5003;59889;50.700;5.440;2022-09-28T00:22:19;3;3;
72023;PMS5003;59889;50.700;5.440;2022-09-28T00:24:44;4;4;
72023;PMS5003;59889;50.700;5.440;2022-09-28T00:27:09;4;4;
72023;PMS5003;59889;50.700;5.440;2022-09-28T00:29:34;3;2;
72023;PMS5003;59889;50.700;5.440;2022-09-28T00:32:00;3;3;
72023;PMS5003;59889;50.700;5.440;2022-09-28T00:34:24;5;5;
72023;PMS5003;59889;50.700;5.440;2022-09-28T00:36:49;4;4;
72023;PMS5003;59889;50.700;5.440;2022-09-28T00:39:14;2;2;
72023;PMS5003;59889;50.700;5.440;2022-09-28T00:41:39;4;4;
72023;PMS5003;59889;50.700;5.440;2022-09-28T00:46:30;4;4;
72023;PMS5003;59889;50.700;5.440;2022-09-28T00:48:55;2;2;
72023;PMS5003;59889;50.700;5.440;2022-09-28T00:51:20;5;4;
72023;PMS5003;59889;50.700;5.440;2022-09-28T00:53:45;3;3;
72023;PMS5003;59889;50.700;5.440;2022-09-28T00:56:11;6;4;
72023;PMS5003;59889;50.700;5.440;2022-09-28T00:58:38;4;4;
72023;PMS5003;59889;50.700;5.440;2022-09-28T01:01:01;4;4;
72023;PMS5003;59889;50.700;5.440;2022-09-28T01:03:26;5;5;
72023;PMS5003;59889;50.700;5.440;2022-09-28T01:05:51;4;3;
72023;PMS5003;59889;50.700;5.440;2022-09-28T01:08:16;3;3;
72023;PMS5003;59889;50.700;5.440;2022-09-28T01:10:41;4;3;
72023;PMS5003;59889;50.700;5.440;2022-09-28T01:13:06;4;3;
72023;PMS5003;59889;50.700;5.440;2022-09-28T01:15:31;4;4;
72023;PMS5003;59889;50.700;5.440;2022-09-28T01:17:59;4;4;
72023;PMS5003;59889;50.700;5.440;2022-09-28T01:20:31;3;3;
72023;PMS5003;59889;50.700;5.440;2022-09-28T01:25:12;4;4;
72023;PMS5003;59889;50.700;5.440;2022-09-28T01:27:37;4;2;
72023;PMS5003;59889;50.700;5.440;2022-09-28T01:30:02;3;3;
72023;PMS5003;59889;50.700;5.440;2022-09-28T01:32:31;3;3;
72023;PMS5003;59889;50.700;5.440;2022-09-28T01:34:53;4;4;
72023;PMS5003;59889;50.700;5.440;2022-09-28T01:37:17;5;5;
72023;PMS5003;59889;50.700;5.440;2022-09-28T01:39:43;3;3;
72023;PMS5003;59889;50.700;5.440;2022-09-28T01:42:08;3;2;
72023;PMS5003;59889;50.700;5.440;2022-09-28T01:44:33;4;4;
72023;PMS5003;59889;50.700;5.440;2022-09-28T01:46:57;3;3;
72023;PMS5003;59889;50.700;5.440;2022-09-28T01:49:23;3;3;
72023;PMS5003;59889;50.700;5.440;2022-09-28T01:51:50;4;4;
72023;PMS5003;59889;50.700;5.440;2022-09-28T01:54:13;3;3;
72023;PMS5003;59889;50.700;5.440;2022-09-28T01:56:38;3;3;
72023;PMS5003;59889;50.700;5.440;2022-09-28T01:59:04;3;3;
72023;PMS5003;59889;50.700;5.440;2022-09-28T02:01:28;3;3;
72023;PMS5003;59889;50.700;5.440;2022-09-28T02:03:54;3;3;
72023;PMS5003;59889;50.700;5.440;2022-09-28T02:06:19;2;2;
72023;PMS5003;59889;50.700;5.440;2022-09-28T02:08:44;3;3;
72023;PMS5003;59889;50.700;5.440;2022-09-28T02:11:10;3;3;
72023;PMS5003;59889;50.700;5.440;2022-09-28T02:13:34;2;2;
72023;PMS5003;59889;50.700;5.440;2022-09-28T02:16:00;3;3;
72023;PMS5003;59889;50.700;5.440;2022-09-28T02:18:23;4;3;
72023;PMS5003;59889;50.700;5.440;2022-09-28T02:20:51;3;2;
72023;PMS5003;59889;50.700;5.440;2022-09-28T02:23:13;3;3;
72023;PMS5003;59889;50.700;5.440;2022-09-28T02:25:39;3;2;
72023;PMS5003;59889;50.700;5.440;2022-09-28T02:28:04;5;3;
72023;PMS5003;59889;50.700;5.440;2022-09-28T02:30:29;2;2;
72023;PMS5003;59889;50.700;5.440;2022-09-28T02:32:54;3;2;
72023;PMS5003;59889;50.700;5.440;2022-09-28T02:35:19;2;2;
72023;PMS5003;59889;50.700;5.440;2022-09-28T02:37:44;3;3;
72023;PMS5003;59889;50.700;5.440;2022-09-28T02:40:12;3;3;
72023;PMS5003;59889;50.700;5.440;2022-09-28T02:42:36;2;2;
72023;PMS5003;59889;50.700;5.440;2022-09-28T02:45:02;3;3;
72023;PMS5003;59889;50.700;5.440;2022-09-28T02:47:25;3;3;
72023;PMS5003;59889;50.700;5.440;2022-09-28T02:49:50;2;2;
72023;PMS5003;59889;50.700;5.440;2022-09-28T02:52:21;2;2;
72023;PMS5003;59889;50.700;5.440;2022-09-28T02:57:09;2;1;
72023;PMS5003;59889;50.700;5.440;2022-09-28T02:59:33;2;2;
72023;PMS5003;59889;50.700;5.440;2022-09-28T03:01:56;3;3;
72023;PMS5003;59889;50.700;5.440;2022-09-28T03:04:22;2;2;
72023;PMS5003;59889;50.700;5.440;2022-09-28T03:06:45;2;2;
72023;PMS5003;59889;50.700;5.440;2022-09-28T03:09:12;4;3;
72023;PMS5003;59889;50.700;5.440;2022-09-28T03:11:35;2;1;
72023;PMS5003;59889;50.700;5.440;2022-09-28T03:14:00;3;3;
72023;PMS5003;59889;50.700;5.440;2022-09-28T03:16:25;3;3;
72023;PMS5003;59889;50.700;5.440;2022-09-28T03:18:50;2;2;
72023;PMS5003;59889;50.700;5.440;2022-09-28T03:21:15;3;3;
72023;PMS5003;59889;50.700;5.440;2022-09-28T03:23:40;3;3;
72023;PMS5003;59889;50.700;5.440;2022-09-28T03:26:06;3;3;
72023;PMS5003;59889;50.700;5.440;2022-09-28T03:28:30;3;3;
72023;PMS5003;59889;50.700;5.440;2022-09-28T03:30:55;3;3;
72023;PMS5003;59889;50.700;5.440;2022-09-28T03:33:20;3;3;
72023;PMS5003;59889;50.700;5.440;2022-09-28T03:35:46;2;2;
72023;PMS5003;59889;50.700;5.440;2022-09-28T03:38:10;2;2;
72023;PMS5003;59889;50.700;5.440;2022-09-28T03:40:36;2;2;
72023;PMS5003;59889;50.700;5.440;2022-09-28T03:43:02;1;1;
72023;PMS5003;59889;50.700;5.440;2022-09-28T03:45:26;0;0;
72023;PMS5003;59889;50.700;5.440;2022-09-28T03:47:51;4;2;
72023;PMS5003;59889;50.700;5.440;2022-09-28T03:50:16;2;2;
72023;PMS5003;59889;50.700;5.440;2022-09-28T03:52:41;3;3;
72023;PMS5003;59889;50.700;5.440;2022-09-28T03:55:06;2;2;
72023;PMS5003;59889;50.700;5.440;2022-09-28T03:57:31;3;2;
72023;PMS5003;59889;50.700;5.440;2022-09-28T03:59:56;2;2;
72023;PMS5003;59889;50.700;5.440;2022-09-28T04:02:21;1;1;
72023;PMS5003;59889;50.700;5.440;2022-09-28T04:04:46;2;2;
72023;PMS5003;59889;50.700;5.440;2022-09-28T04:07:11;1;1;
72023;PMS5003;59889;50.700;5.440;2022-09-28T04:09:36;2;2;
72023;PMS5003;59889;50.700;5.440;2022-09-28T04:12:02;2;2;
72023;PMS5003;59889;50.700;5.440;2022-09-28T04:14:27;2;2;
72023;PMS5003;59889;50.700;5.440;2022-09-28T04:16:52;2;1;
72023;PMS5003;59889;50.700;5.440;2022-09-28T04:19:17;2;2;
72023;PMS5003;59889;50.700;5.440;2022-09-28T04:21:42;1;1;
72023;PMS5003;59889;50.700;5.440;2022-09-28T04:24:07;3;2;
72023;PMS5003;59889;50.700;5.440;2022-09-28T04:26:32;3;2;
72023;PMS5003;59889;50.700;5.440;2022-09-28T04:28:57;3;3;
72023;PMS5003;59889;50.700;5.440;2022-09-28T04:31:22;2;2;
72023;PMS5003;59889;50.700;5.440;2022-09-28T04:33:47;3;3;
72023;PMS5003;59889;50.700;5.440;2022-09-28T04:36:12;1;1;
72023;PMS5003;59889;50.700;5.440;2022-09-28T04:38:37;2;1;
72023;PMS5003;59889;50.700;5.440;2022-09-28T04:41:02;1;1;
72023;PMS5003;59889;50.700;5.440;2022-09-28T04:43:28;3;3;
72023;PMS5003;59889;50.700;5.440;2022-09-28T04:45:56;1;1;
72023;PMS5003;59889;50.700;5.440;2022-09-28T04:48:18;1;1;
72023;PMS5003;59889;50.700;5.440;2022-09-28T04:50:43;0;0;
72023;PMS5003;59889;50.700;5.440;2022-09-28T04:53:08;2;1;
72023;PMS5003;59889;50.700;5.440;2022-09-28T04:55:33;1;1;
72023;PMS5003;59889;50.700;5.440;2022-09-28T04:57:58;2;1;
72023;PMS5003;59889;50.700;5.440;2022-09-28T05:00:23;3;3;
72023;PMS5003;59889;50.700;5.440;2022-09-28T05:02:48;2;2;
72023;PMS5003;59889;50.700;5.440;2022-09-28T05:05:13;0;0;
72023;PMS5003;59889;50.700;5.440;2022-09-28T05:07:39;2;2;
72023;PMS5003;59889;50.700;5.440;2022-09-28T05:10:04;3;3;
72023;PMS5003;59889;50.700;5.440;2022-09-28T05:12:29;3;3;
72023;PMS5003;59889;50.700;5.440;2022-09-28T05:14:54;2;2;
72023;PMS5003;59889;50.700;5.440;2022-09-28T05:17:19;1;1;
72023;PMS5003;59889;50.700;5.440;2022-09-28T05:19:44;2;2;
72023;PMS5003;59889;50.700;5.440;2022-09-28T05:22:09;2;2;
72023;PMS5003;59889;50.700;5.440;2022-09-28T05:24:34;2;2;
72023;PMS5003;59889;50.700;5.440;2022-09-28T05:26:59;3;3;
72023;PMS5003;59889;50.700;5.440;2022-09-28T05:29:24;2;2;
72023;PMS5003;59889;50.700;5.440;2022-09-28T05:31:49;2;2;
72023;PMS5003;59889;50.700;5.440;2022-09-28T05:34:14;5;4;
72023;PMS5003;59889;50.700;5.440;2022-09-28T05:36:39;2;2;
72023;PMS5003;59889;50.700;5.440;2022-09-28T05:39:04;3;3;
72023;PMS5003;59889;50.700;5.440;2022-09-28T05:41:29;3;3;
72023;PMS5003;59889;50.700;5.440;2022-09-28T05:43:55;2;2;
72023;PMS5003;59889;50.700;5.440;2022-09-28T05:46:19;1;1;
72023;PMS5003;59889;50.700;5.440;2022-09-28T05:48:45;2;2;
72023;PMS5003;59889;50.700;5.440;2022-09-28T05:51:10;3;3;
72023;PMS5003;59889;50.700;5.440;2022-09-28T05:53:35;5;3;
72023;PMS5003;59889;50.700;5.440;2022-09-28T05:56:00;2;2;
72023;PMS5003;59889;50.700;5.440;2022-09-28T05:58:26;5;4;
72023;PMS5003;59889;50.700;5.440;2022-09-28T06:00:52;2;2;
72023;PMS5003;59889;50.700;5.440;2022-09-28T06:03:15;2;2;
72023;PMS5003;59889;50.700;5.440;2022-09-28T06:05:40;2;2;
72023;PMS5003;59889;50.700;5.440;2022-09-28T06:08:06;3;3;
72023;PMS5003;59889;50.700;5.440;2022-09-28T06:10:31;2;2;
72023;PMS5003;59889;50.700;5.440;2022-09-28T06:12:55;3;3;
72023;PMS5003;59889;50.700;5.440;2022-09-28T06:15:21;3;2;
72023;PMS5003;59889;50.700;5.440;2022-09-28T06:17:46;2;2;
72023;PMS5003;59889;50.700;5.440;2022-09-28T06:20:11;2;2;
72023;PMS5003;59889;50.700;5.440;2022-09-28T06:22:36;2;2;
72023;PMS5003;59889;50.700;5.440;2022-09-28T06:25:01;2;2;
72023;PMS5003;59889;50.700;5.440;2022-09-28T06:27:26;2;2;
72023;PMS5003;59889;50.700;5.440;2022-09-28T06:29:51;1;1;
72023;PMS5003;59889;50.700;5.440;2022-09-28T06:32:16;0;0;
72023;PMS5003;59889;50.700;5.440;2022-09-28T06:34:41;4;3;
72023;PMS5003;59889;50.700;5.440;2022-09-28T06:37:07;3;2;
72023;PMS5003;59889;50.700;5.440;2022-09-28T06:39:32;1;1;
72023;PMS5003;59889;50.700;5.440;2022-09-28T06:41:56;3;2;
72023;PMS5003;59889;50.700;5.440;2022-09-28T06:44:22;2;2;
72023;PMS5003;59889;50.700;5.440;2022-09-28T06:46:47;1;1;
72023;PMS5003;59889;50.700;5.440;2022-09-28T06:49:12;2;2;
72023;PMS5003;59889;50.700;5.440;2022-09-28T06:51:37;1;1;
72023;PMS5003;59889;50.700;5.440;2022-09-28T06:54:02;2;1;
72023;PMS5003;59889;50.700;5.440;2022-09-28T06:56:27;2;2;
72023;PMS5003;59889;50.700;5.440;2022-09-28T06:58:53;2;1;
72023;PMS5003;59889;50.700;5.440;2022-09-28T07:01:17;4;3;
72023;PMS5003;59889;50.700;5.440;2022-09-28T07:03:42;3;2;
72023;PMS5003;59889;50.700;5.440;2022-09-28T07:06:08;1;1;
72023;PMS5003;59889;50.700;5.440;2022-09-28T07:08:32;3;3;
72023;PMS5003;59889;50.700;5.440;2022-09-28T07:10:57;2;2;
72023;PMS5003;59889;50.700;5.440;2022-09-28T07:13:23;2;1;
72023;PMS5003;59889;50.700;5.440;2022-09-28T07:15:47;3;3;
72023;PMS5003;59889;50.700;5.440;2022-09-28T07:18:12;3;3;
72023;PMS5003;59889;50.700;5.440;2022-09-28T07:20:37;1;1;
72023;PMS5003;59889;50.700;5.440;2022-09-28T07:23:03;3;3;
72023;PMS5003;59889;50.700;5.440;2022-09-28T07:25:28;4;4;
72023;PMS5003;59889;50.700;5.440;2022-09-28T07:27:53;4;4;
72023;PMS5003;59889;50.700;5.440;2022-09-28T07:30:18;3;3;
72023;PMS5003;59889;50.700;5.440;2022-09-28T07:32:43;5;4;
72023;PMS5003;59889;50.700;5.440;2022-09-28T07:35:08;7;5;
72023;PMS5003;59889;50.700;5.440;2022-09-28T07:37:33;5;4;
72023;PMS5003;59889;50.700;5.440;2022-09-28T07:39:58;4;4;
72023;PMS5003;59889;50.700;5.440;2022-09-28T07:42:24;5;4;
72023;PMS5003;59889;50.700;5.440;2022-09-28T07:44:49;5;4;
72023;PMS5003;59889;50.700;5.440;2022-09-28T07:47:14;3;3;
72023;PMS5003;59889;50.700;5.440;2022-09-28T07:49:39;4;4;
72023;PMS5003;59889;50.700;5.440;2022-09-28T07:52:04;3;3;
72023;PMS5003;59889;50.700;5.440;2022-09-28T07:54:29;4;4;
72023;PMS5003;59889;50.700;5.440;2022-09-28T07:56:54;4;3;
72023;PMS5003;59889;50.700;5.440;2022-09-28T07:59:20;5;4;
72023;PMS5003;59889;50.700;5.440;2022-09-28T08:01:45;4;4;
72023;PMS5003;59889;50.700;5.440;2022-09-28T08:04:10;6;5;
72023;PMS5003;59889;50.700;5.440;2022-09-28T08:06:35;3;3;
72023;PMS5003;59889;50.700;5.440;2022-09-28T08:09:01;5;4;
72023;PMS5003;59889;50.700;5.440;2022-09-28T08:11:26;5;5;
72023;PMS5003;59889;50.700;5.440;2022-09-28T08:13:51;4;3;
72023;PMS5003;59889;50.700;5.440;2022-09-28T08:16:17;4;4;
72023;PMS5003;59889;50.700;5.440;2022-09-28T08:18:42;5;3;
72023;PMS5003;59889;50.700;5.440;2022-09-28T08:21:08;3;3;
72023;PMS5003;59889;50.700;5.440;2022-09-28T08:23:32;5;4;
72023;PMS5003;59889;50.700;5.440;2022-09-28T08:25:57;4;4;
72023;PMS5003;59889;50.700;5.440;2022-09-28T08:28:22;4;4;
72023;PMS5003;59889;50.700;5.440;2022-09-28T08:30:47;5;3;
72023;PMS5003;59889;50.700;5.440;2022-09-28T08:33:12;5;5;
72023;PMS5003;59889;50.700;5.440;2022-09-28T08:35:37;3;3;
72023;PMS5003;59889;50.700;5.440;2022-09-28T08:38:02;4;4;
72023;PMS5003;59889;50.700;5.440;2022-09-28T08:40:27;4;4;
72023;PMS5003;59889;50.700;5.440;2022-09-28T08:42:53;3;3;
72023;PMS5003;59889;50.700;5.440;2022-09-28T08:45:20;4;4;
72023;PMS5003;59889;50.700;5.440;2022-09-28T08:47:45;6;5;
72023;PMS5003;59889;50.700;5.440;2022-09-28T08:50:09;4;4;
72023;PMS5003;59889;50.700;5.440;2022-09-28T08:52:33;5;4;
72023;PMS5003;59889;50.700;5.440;2022-09-28T08:54:59;6;4;
72023;PMS5003;59889;50.700;5.440;2022-09-28T08:57:23;3;2;
72023;PMS5003;59889;50.700;5.440;2022-09-28T08:59:49;4;4;
72023;PMS5003;59889;50.700;5.440;2022-09-28T09:02:14;7;7;
72023;PMS5003;59889;50.700;5.440;2022-09-28T09:04:38;5;5;
72023;PMS5003;59889;50.700;5.440;2022-09-28T09:07:11;4;4;
72023;PMS5003;59889;50.700;5.440;2022-09-28T09:09:30;4;3;
72023;PMS5003;59889;50.700;5.440;2022-09-28T09:11:56;3;3;
72023;PMS5003;59889;50.700;5.440;2022-09-28T09:16:46;4;4;
72023;PMS5003;59889;50.700;5.440;2022-09-28T09:19:13;2;2;
72023;PMS5003;59889;50.700;5.440;2022-09-28T09:21:38;2;2;
72023;PMS5003;59889;50.700;5.440;2022-09-28T09:23:59;3;3;
72023;PMS5003;59889;50.700;5.440;2022-09-28T09:26:28;2;2;
72023;PMS5003;59889;50.700;5.440;2022-09-28T09:31:17;3;3;
72023;PMS5003;59889;50.700;5.440;2022-09-28T09:33:45;4;4;
72023;PMS5003;59889;50.700;5.440;2022-09-28T09:36:07;4;4;
72023;PMS5003;59889;50.700;5.440;2022-09-28T09:38:33;4;3;
72023;PMS5003;59889;50.700;5.440;2022-09-28T09:40:57;3;3;
72023;PMS5003;59889;50.700;5.440;2022-09-28T09:45:50;4;3;
72023;PMS5003;59889;50.700;5.440;2022-09-28T09:48:11;3;3;
72023;PMS5003;59889;50.700;5.440;2022-09-28T09:50:36;4;3;
72023;PMS5003;59889;50.700;5.440;2022-09-28T09:53:01;4;4;
72023;PMS5003;59889;50.700;5.440;2022-09-28T09:55:26;4;3;
72023;PMS5003;59889;50.700;5.440;2022-09-28T09:57:50;2;2;
72023;PMS5003;59889;50.700;5.440;2022-09-28T10:00:15;4;4;
72023;PMS5003;59889;50.700;5.440;2022-09-28T10:02:40;4;4;
72023;PMS5003;59889;50.700;5.440;2022-09-28T10:05:05;3;2;
72023;PMS5003;59889;50.700;5.440;2022-09-28T10:07:32;4;4;
72023;PMS5003;59889;50.700;5.440;2022-09-28T10:09:56;5;4;
72023;PMS5003;59889;50.700;5.440;2022-09-28T10:12:20;4;4;
72023;PMS5003;59889;50.700;5.440;2022-09-28T10:14:45;4;3;
72023;PMS5003;59889;50.700;5.440;2022-09-28T10:17:10;4;4;
72023;PMS5003;59889;50.700;5.440;2022-09-28T10:19:35;4;4;
72023;PMS5003;59889;50.700;5.440;2022-09-28T10:22:02;4;3;
72023;PMS5003;59889;50.700;5.440;2022-09-28T10:24:27;3;3;
72023;PMS5003;59889;50.700;5.440;2022-09-28T10:26:52;6;5;
72023;PMS5003;59889;50.700;5.440;2022-09-28T10:29:16;4;4;
72023;PMS5003;59889;50.700;5.440;2022-09-28T10:31:41;4;4;
72023;PMS5003;59889;50.700;5.440;2022-09-28T10:34:06;5;4;
72023;PMS5003;59889;50.700;5.440;2022-09-28T10:36:31;5;4;
72023;PMS5003;59889;50.700;5.440;2022-09-28T10:38:56;4;4;
72023;PMS5003;59889;50.700;5.440;2022-09-28T10:41:21;3;3;
72023;PMS5003;59889;50.700;5.440;2022-09-28T10:43:49;4;4;
72023;PMS5003;59889;50.700;5.440;2022-09-28T10:46:12;2;2;
72023;PMS5003;59889;50.700;5.440;2022-09-28T10:48:47;4;4;
72023;PMS5003;59889;50.700;5.440;2022-09-28T10:51:02;7;4;
72023;PMS5003;59889;50.700;5.440;2022-09-28T10:53:26;3;3;
72023;PMS5003;59889;50.700;5.440;2022-09-28T10:55:56;4;4;
72023;PMS5003;59889;50.700;5.440;2022-09-28T10:58:21;2;2;
72023;PMS5003;59889;50.700;5.440;2022-09-28T11:00:42;3;3;
72023;PMS5003;59889;50.700;5.440;2022-09-28T11:05:32;3;3;
72023;PMS5003;59889;50.700;5.440;2022-09-28T11:07:57;4;4;
72023;PMS5003;59889;50.700;5.440;2022-09-28T11:10:22;4;3;
72023;PMS5003;59889;50.700;5.440;2022-09-28T11:12:47;2;2;
72023;PMS5003;59889;50.700;5.440;2022-09-28T11:15:15;4;3;
72023;PMS5003;59889;50.700;5.440;2022-09-28T11:17:37;4;4;
72023;PMS5003;59889;50.700;5.440;2022-09-28T11:22:28;5;5;
72023;PMS5003;59889;50.700;5.440;2022-09-28T11:24:52;3;3;
72023;PMS5003;59889;50.700;5.440;2022-09-28T11:27:18;4;3;
72023;PMS5003;59889;50.700;5.440;2022-09-28T11:29:43;3;3;
72023;PMS5003;59889;50.700;5.440;2022-09-28T11:32:07;2;2;
72023;PMS5003;59889;50.700;5.440;2022-09-28T11:34:33;4;4;
72023;PMS5003;59889;50.700;5.440;2022-09-28T11:37:02;4;3;
72023;PMS5003;59889;50.700;5.440;2022-09-28T11:39:25;4;4;
72023;PMS5003;59889;50.700;5.440;2022-09-28T11:41:52;2;2;
72023;PMS5003;59889;50.700;5.440;2022-09-28T11:44:17;4;4;
72023;PMS5003;59889;50.700;5.440;2022-09-28T11:46:40;3;3;
72023;PMS5003;59889;50.700;5.440;2022-09-28T11:49:05;4;4;
72023;PMS5003;59889;50.700;5.440;2022-09-28T11:51:29;3;3;
72023;PMS5003;59889;50.700;5.440;2022-09-28T11:53:53;4;4;
72023;PMS5003;59889;50.700;5.440;2022-09-28T11:56:21;4;4;
72023;PMS5003;59889;50.700;5.440;2022-09-28T11:58:44;3;3;
72023;PMS5003;59889;50.700;5.440;2022-09-28T12:01:12;3;3;
72023;PMS5003;59889;50.700;5.440;2022-09-28T12:03:35;3;3;
72023;PMS5003;59889;50.700;5.440;2022-09-28T12:05:59;4;4;
72023;PMS5003;59889;50.700;5.440;2022-09-28T12:08:25;5;4;
72023;PMS5003;59889;50.700;5.440;2022-09-28T12:10:50;4;3;
72023;PMS5003;59889;50.700;5.440;2022-09-28T12:13:15;3;2;
72023;PMS5003;59889;50.700;5.440;2022-09-28T12:15:41;5;5;
72023;PMS5003;59889;50.700;5.440;2022-09-28T12:18:05;3;3;
72023;PMS5003;59889;50.700;5.440;2022-09-28T12:20:29;5;5;
72023;PMS5003;59889;50.700;5.440;2022-09-28T12:23:00;4;4;
72023;PMS5003;59889;50.700;5.440;2022-09-28T12:25:20;4;4;
72023;PMS5003;59889;50.700;5.440;2022-09-28T12:27:45;3;3;
72023;PMS5003;59889;50.700;5.440;2022-09-28T12:30:12;4;4;
72023;PMS5003;59889;50.700;5.440;2022-09-28T12:32:35;4;3;
72023;PMS5003;59889;50.700;5.440;2022-09-28T12:34:59;3;3;
72023;PMS5003;59889;50.700;5.440;2022-09-28T12:37:29;4;3;
72023;PMS5003;59889;50.700;5.440;2022-09-28T12:39:53;4;3;
72023;PMS5003;59889;50.700;5.440;2022-09-28T12:42:18;4;4;
72023;PMS5003;59889;50.700;5.440;2022-09-28T12:44:44;3;2;
72023;PMS5003;59889;50.700;5.440;2022-09-28T12:47:11;3;3;
72023;PMS5003;59889;50.700;5.440;2022-09-28T12:49:32;4;4;
72023;PMS5003;59889;50.700;5.440;2022-09-28T12:51:55;4;4;
72023;PMS5003;59889;50.700;5.440;2022-09-28T12:54:25;3;3;
72023;PMS5003;59889;50.700;5.440;2022-09-28T12:56:48;5;4;
72023;PMS5003;59889;50.700;5.440;2022-09-28T12:59:14;3;3;
72023;PMS5003;59889;50.700;5.440;2022-09-28T13:01:43;3;3;
72023;PMS5003;59889;50.700;5.440;2022-09-28T13:06:31;2;2;
72023;PMS5003;59889;50.700;5.440;2022-09-28T13:08:55;2;2;
72023;PMS5003;59889;50.700;5.440;2022-09-28T13:11:18;3;2;
72023;PMS5003;59889;50.700;5.440;2022-09-28T13:13:43;3;3;
72023;PMS5003;59889;50.700;5.440;2022-09-28T13:16:07;3;3;
72023;PMS5003;59889;50.700;5.440;2022-09-28T13:18:32;5;4;
72023;PMS5003;59889;50.700;5.440;2022-09-28T13:21:00;2;1;
72023;PMS5003;59889;50.700;5.440;2022-09-28T13:23:22;4;3;
72023;PMS5003;59889;50.700;5.440;2022-09-28T13:25:49;3;3;
72023;PMS5003;59889;50.700;5.440;2022-09-28T13:28:12;3;3;
72023;PMS5003;59889;50.700;5.440;2022-09-28T13:30:37;3;3;
72023;PMS5003;59889;50.700;5.440;2022-09-28T13:33:02;4;4;
72023;PMS5003;59889;50.700;5.440;2022-09-28T13:35:27;4;3;
72023;PMS5003;59889;50.700;5.440;2022-09-28T13:40:17;3;2;
72023;PMS5003;59889;50.700;5.440;2022-09-28T13:42:49;3;3;
72023;PMS5003;59889;50.700;5.440;2022-09-28T13:47:39;3;3;
72023;PMS5003;59889;50.700;5.440;2022-09-28T13:50:01;3;3;
72023;PMS5003;59889;50.700;5.440;2022-09-28T13:52:29;3;3;
72023;PMS5003;59889;50.700;5.440;2022-09-28T13:54:51;2;2;
72023;PMS5003;59889;50.700;5.440;2022-09-28T13:57:15;3;3;
72023;PMS5003;59889;50.700;5.440;2022-09-28T13:59:42;4;3;
72023;PMS5003;59889;50.700;5.440;2022-09-28T14:02:03;3;3;
72023;PMS5003;59889;50.700;5.440;2022-09-28T14:06:54;2;2;
72023;PMS5003;59889;50.700;5.440;2022-09-28T14:09:23;3;3;
72023;PMS5003;59889;50.700;5.440;2022-09-28T14:11:52;1;1;
72023;PMS5003;59889;50.700;5.440;2022-09-28T14:16:34;3;3;
72023;PMS5003;59889;50.700;5.440;2022-09-28T14:19:00;4;3;
72023;PMS5003;59889;50.700;5.440;2022-09-28T14:26:18;1;1;
72023;PMS5003;59889;50.700;5.440;2022-09-28T14:28:41;3;3;
72023;PMS5003;59889;50.700;5.440;2022-09-28T14:31:06;4;3;
72023;PMS5003;59889;50.700;5.440;2022-09-28T14:33:29;3;2;
72023;PMS5003;59889;50.700;5.440;2022-09-28T14:35:55;3;3;
72023;PMS5003;59889;50.700;5.440;2022-09-28T14:38:20;3;3;
72023;PMS5003;59889;50.700;5.440;2022-09-28T14:40:55;3;2;
72023;PMS5003;59889;50.700;5.440;2022-09-28T14:43:18;3;3;
72023;PMS5003;59889;50.700;5.440;2022-09-28T14:45:35;3;3;
72023;PMS5003;59889;50.700;5.440;2022-09-28T14:50:25;2;2;
72023;PMS5003;59889;50.700;5.440;2022-09-28T14:52:50;3;3;
72023;PMS5003;59889;50.700;5.440;2022-09-28T14:55:16;3;2;
72023;PMS5003;59889;50.700;5.440;2022-09-28T14:57:40;4;4;
72023;PMS5003;59889;50.700;5.440;2022-09-28T15:00:06;2;2;
72023;PMS5003;59889;50.700;5.440;2022-09-28T15:02:30;2;2;
72023;PMS5003;59889;50.700;5.440;2022-09-28T15:04:55;2;2;
72023;PMS5003;59889;50.700;5.440;2022-09-28T15:07:21;3;3;
72023;PMS5003;59889;50.700;5.440;2022-09-28T15:09:46;1;1;
72023;PMS5003;59889;50.700;5.440;2022-09-28T15:12:13;3;3;
72023;PMS5003;59889;50.700;5.440;2022-09-28T15:14:40;3;3;
72023;PMS5003;59889;50.700;5.440;2022-09-28T15:19:26;3;3;
72023;PMS5003;59889;50.700;5.440;2022-09-28T15:21:51;3;3;
72023;PMS5003;59889;50.700;5.440;2022-09-28T15:24:22;1;1;
72023;PMS5003;59889;50.700;5.440;2022-09-28T15:26:46;3;3;
72023;PMS5003;59889;50.700;5.440;2022-09-28T15:31:33;2;2;
72023;PMS5003;59889;50.700;5.440;2022-09-28T15:33:56;3;3;
72023;PMS5003;59889;50.700;5.440;2022-09-28T15:36:22;3;3;
72023;PMS5003;59889;50.700;5.440;2022-09-28T15:38:50;5;3;
72023;PMS5003;59889;50.700;5.440;2022-09-28T15:41:11;2;2;
72023;PMS5003;59889;50.700;5.440;2022-09-28T15:43:36;3;3;
72023;PMS5003;59889;50.700;5.440;2022-09-28T15:46:03;3;3;
72023;PMS5003;59889;50.700;5.440;2022-09-28T15:48:27;2;2;
72023;PMS5003;59889;50.700;5.440;2022-09-28T15:50:54;2;2;
72023;PMS5003;59889;50.700;5.440;2022-09-28T15:53:17;4;4;
72023;PMS5003;59889;50.700;5.440;2022-09-28T15:55:42;2;2;
72023;PMS5003;59889;50.700;5.440;2022-09-28T16:00:32;3;3;
72023;PMS5003;59889;50.700;5.440;2022-09-28T16:02:58;3;3;
72023;PMS5003;59889;50.700;5.440;2022-09-28T16:07:51;3;3;
72023;PMS5003;59889;50.700;5.440;2022-09-28T16:12:40;3;3;
72023;PMS5003;59889;50.700;5.440;2022-09-28T16:15:03;3;3;
72023;PMS5003;59889;50.700;5.440;2022-09-28T16:17:28;3;3;
72023;PMS5003;59889;50.700;5.440;2022-09-28T16:19:53;4;4;
72023;PMS5003;59889;50.700;5.440;2022-09-28T16:22:19;4;4;
72023;PMS5003;59889;50.700;5.440;2022-09-28T16:24:43;5;4;
72023;PMS5003;59889;50.700;5.440;2022-09-28T16:27:27;3;3;
72023;PMS5003;59889;50.700;5.440;2022-09-28T16:29:34;5;5;
72023;PMS5003;59889;50.700;5.440;2022-09-28T16:34:24;9;8;
72023;PMS5003;59889;50.700;5.440;2022-09-28T16:36:49;12;11;
72023;PMS5003;59889;50.700;5.440;2022-09-28T16:39:14;9;9;
72023;PMS5003;59889;50.700;5.440;2022-09-28T16:41:40;9;9;
72023;PMS5003;59889;50.700;5.440;2022-09-28T16:44:04;7;7;
72023;PMS5003;59889;50.700;5.440;2022-09-28T16:46:30;9;9;
72023;PMS5003;59889;50.700;5.440;2022-09-28T16:48:54;8;8;
72023;PMS5003;59889;50.700;5.440;2022-09-28T16:51:20;8;7;
72023;PMS5003;59889;50.700;5.440;2022-09-28T16:53:45;10;9;
72023;PMS5003;59889;50.700;5.440;2022-09-28T16:56:10;8;7;
72023;PMS5003;59889;50.700;5.440;2022-09-28T16:58:35;6;6;
72023;PMS5003;59889;50.700;5.440;2022-09-28T17:01:00;8;8;
72023;PMS5003;59889;50.700;5.440;2022-09-28T17:03:25;9;9;
72023;PMS5003;59889;50.700;5.440;2022-09-28T17:05:50;12;11;
72023;PMS5003;59889;50.700;5.440;2022-09-28T17:08:16;10;10;
72023;PMS5003;59889;50.700;5.440;2022-09-28T17:10:41;12;11;
72023;PMS5003;59889;50.700;5.440;2022-09-28T17:13:07;11;10;
72023;PMS5003;59889;50.700;5.440;2022-09-28T17:15:31;10;9;
72023;PMS5003;59889;50.700;5.440;2022-09-28T17:17:56;11;10;
72023;PMS5003;59889;50.700;5.440;2022-09-28T17:20:22;11;11;
72023;PMS5003;59889;50.700;5.440;2022-09-28T17:22:46;12;11;
72023;PMS5003;59889;50.700;5.440;2022-09-28T17:25:11;11;10;
72023;PMS5003;59889;50.700;5.440;2022-09-28T17:27:36;11;11;